sensor_id;sensor_type;location;lat;lon;timestamp;P1;durP1;ratioP1;P2;durP2;ratioP2
1507;SDS011;745;48.586;10.032;2023-02-03T00:00:49;2.70;;;2.33;;
1507;SDS011;745;48.586;10.032;2023-02-03T00:05:20;2.40;;;2.20;;
1507;SDS011;745;48.586;10.032;2023-02-03T00:09:51;2.03;;;1.90;;
1507;SDS011;745;48.586;10.032;2023-02-03T00:14:21;3.13;;;2.53;;
1507;SDS011;745;48.586;10.032;2023-02-03T00:18:52;2.67;;;2.47;;
1507;SDS011;745;48.586;10.032;2023-02-03T00:23:23;2.73;;;2.53;;
1507;SDS011;745;48.586;10.032;2023-02-03T00:27:55;2.23;;;2.10;;
1507;SDS011;745;48.586;10.032;2023-02-03T00:32:25;5.10;;;2.50;;
1507;SDS011;745;48.586;10.032;2023-02-03T00:36:56;2.40;;;2.20;;
1507;SDS011;745;48.586;10.032;2023-02-03T00:41:27;2.63;;;2.23;;
1507;SDS011;745;48.586;10.032;2023-02-03T00:45:59;4.60;;;2.07;;
1507;SDS011;745;48.586;10.032;2023-02-03T00:50:29;3.10;;;2.47;;
1507;SDS011;745;48.586;10.032;2023-02-03T00:55:00;3.40;;;2.10;;
1507;SDS011;745;48.586;10.032;2023-02-03T00:59:30;8.57;;;2.20;;
1507;SDS011;745;48.586;10.032;2023-02-03T01:04:00;2.50;;;2.30;;
1507;SDS011;745;48.586;10.032;2023-02-03T01:08:31;2.70;;;2.33;;
1507;SDS011;745;48.586;10.032;2023-02-03T01:13:02;2.40;;;2.10;;
1507;SDS011;745;48.586;10.032;2023-02-03T01:17:32;3.20;;;2.10;;
1507;SDS011;745;48.586;10.032;2023-02-03T01:22:02;2.90;;;2.40;;
1507;SDS011;745;48.586;10.032;2023-02-03T01:26:32;1.77;;;1.63;;
1507;SDS011;745;48.586;10.032;2023-02-03T01:35:47;1.90;;;1.80;;
1507;SDS011;745;48.586;10.032;2023-02-03T01:40:17;2.00;;;1.80;;
1507;SDS011;745;48.586;10.032;2023-02-03T01:44:48;2.07;;;1.97;;
1507;SDS011;745;48.586;10.032;2023-02-03T01:49:23;2.03;;;1.93;;
1507;SDS011;745;48.586;10.032;2023-02-03T01:53:56;1.90;;;1.80;;
1507;SDS011;745;48.586;10.032;2023-02-03T01:58:28;3.40;;;2.10;;
1507;SDS011;745;48.586;10.032;2023-02-03T02:03:01;4.30;;;2.10;;
1507;SDS011;745;48.586;10.032;2023-02-03T02:07:32;2.73;;;2.53;;
1507;SDS011;745;48.586;10.032;2023-02-03T02:12:03;2.63;;;2.40;;
1507;SDS011;745;48.586;10.032;2023-02-03T02:31:12;3.93;;;2.07;;
1507;SDS011;745;48.586;10.032;2023-02-03T02:36:19;2.43;;;2.20;;
1507;SDS011;745;48.586;10.032;2023-02-03T02:41:06;2.30;;;2.10;;
1507;SDS011;745;48.586;10.032;2023-02-03T02:45:43;2.07;;;1.90;;
1507;SDS011;745;48.586;10.032;2023-02-03T02:50:25;2.23;;;2.00;;
1507;SDS011;745;48.586;10.032;2023-02-03T02:54:58;3.20;;;2.27;;
1507;SDS011;745;48.586;10.032;2023-02-03T02:59:42;2.70;;;2.20;;
1507;SDS011;745;48.586;10.032;2023-02-03T03:04:13;2.33;;;2.23;;
1507;SDS011;745;48.586;10.032;2023-02-03T03:08:47;2.30;;;2.20;;
1507;SDS011;745;48.586;10.032;2023-02-03T03:13:21;1.90;;;1.80;;
1507;SDS011;745;48.586;10.032;2023-02-03T03:22:41;3.17;;;2.27;;
1507;SDS011;745;48.586;10.032;2023-02-03T03:27:23;2.77;;;2.23;;
1507;SDS011;745;48.586;10.032;2023-02-03T03:31:54;2.30;;;2.10;;
1507;SDS011;745;48.586;10.032;2023-02-03T03:41:27;1.90;;;1.80;;
1507;SDS011;745;48.586;10.032;2023-02-03T03:46:20;2.70;;;2.00;;
1507;SDS011;745;48.586;10.032;2023-02-03T03:50:59;2.30;;;2.10;;
1507;SDS011;745;48.586;10.032;2023-02-03T03:55:34;3.10;;;1.90;;
1507;SDS011;745;48.586;10.032;2023-02-03T04:00:05;2.03;;;1.63;;
1507;SDS011;745;48.586;10.032;2023-02-03T04:04:38;1.70;;;1.60;;
1507;SDS011;745;48.586;10.032;2023-02-03T04:09:09;2.13;;;1.60;;
1507;SDS011;745;48.586;10.032;2023-02-03T04:13:40;1.60;;;1.50;;
1507;SDS011;745;48.586;10.032;2023-02-03T04:18:13;1.87;;;1.73;;
1507;SDS011;745;48.586;10.032;2023-02-03T04:22:44;1.77;;;1.30;;
1507;SDS011;745;48.586;10.032;2023-02-03T04:27:15;1.43;;;1.30;;
1507;SDS011;745;48.586;10.032;2023-02-03T04:31:45;6.17;;;5.63;;
1507;SDS011;745;48.586;10.032;2023-02-03T04:36:16;1.70;;;1.60;;
1507;SDS011;745;48.586;10.032;2023-02-03T04:40:46;1.50;;;1.40;;
1507;SDS011;745;48.586;10.032;2023-02-03T04:45:17;1.70;;;1.60;;
1507;SDS011;745;48.586;10.032;2023-02-03T04:49:47;1.30;;;1.20;;
1507;SDS011;745;48.586;10.032;2023-02-03T04:54:17;9.50;;;4.87;;
1507;SDS011;745;48.586;10.032;2023-02-03T04:58:48;17.77;;;8.90;;
1507;SDS011;745;48.586;10.032;2023-02-03T05:03:18;5.87;;;3.70;;
1507;SDS011;745;48.586;10.032;2023-02-03T05:07:49;11.30;;;6.73;;
1507;SDS011;745;48.586;10.032;2023-02-03T05:12:19;11.33;;;6.60;;
1507;SDS011;745;48.586;10.032;2023-02-03T05:16:49;6.47;;;4.40;;
1507;SDS011;745;48.586;10.032;2023-02-03T05:21:19;14.10;;;6.90;;
1507;SDS011;745;48.586;10.032;2023-02-03T05:25:50;13.30;;;8.50;;
1507;SDS011;745;48.586;10.032;2023-02-03T05:30:20;19.33;;;11.03;;
1507;SDS011;745;48.586;10.032;2023-02-03T05:34:51;6.70;;;4.53;;
1507;SDS011;745;48.586;10.032;2023-02-03T05:39:21;5.77;;;5.00;;
1507;SDS011;745;48.586;10.032;2023-02-03T05:43:51;2.90;;;2.60;;
1507;SDS011;745;48.586;10.032;2023-02-03T05:48:22;2.80;;;2.60;;
1507;SDS011;745;48.586;10.032;2023-02-03T05:52:52;3.53;;;3.23;;
1507;SDS011;745;48.586;10.032;2023-02-03T05:57:22;6.00;;;5.20;;
1507;SDS011;745;48.586;10.032;2023-02-03T06:01:53;4.23;;;3.87;;
1507;SDS011;745;48.586;10.032;2023-02-03T06:06:23;2.97;;;2.77;;
1507;SDS011;745;48.586;10.032;2023-02-03T06:10:57;2.00;;;1.90;;
1507;SDS011;745;48.586;10.032;2023-02-03T06:15:28;2.17;;;2.07;;
1507;SDS011;745;48.586;10.032;2023-02-03T06:19:59;3.70;;;2.50;;
1507;SDS011;745;48.586;10.032;2023-02-03T06:24:30;2.40;;;2.20;;
1507;SDS011;745;48.586;10.032;2023-02-03T06:29:00;2.67;;;2.47;;
1507;SDS011;745;48.586;10.032;2023-02-03T06:33:31;2.37;;;2.17;;
1507;SDS011;745;48.586;10.032;2023-02-03T06:38:01;2.20;;;1.97;;
1507;SDS011;745;48.586;10.032;2023-02-03T06:42:32;2.70;;;2.13;;
1507;SDS011;745;48.586;10.032;2023-02-03T06:47:02;3.00;;;2.40;;
1507;SDS011;745;48.586;10.032;2023-02-03T06:51:33;4.10;;;2.80;;
1507;SDS011;745;48.586;10.032;2023-02-03T06:56:03;2.33;;;2.13;;
1507;SDS011;745;48.586;10.032;2023-02-03T07:00:33;2.87;;;2.57;;
1507;SDS011;745;48.586;10.032;2023-02-03T07:05:04;2.50;;;2.30;;
1507;SDS011;745;48.586;10.032;2023-02-03T07:09:35;2.47;;;2.27;;
1507;SDS011;745;48.586;10.032;2023-02-03T07:14:05;2.83;;;2.60;;
1507;SDS011;745;48.586;10.032;2023-02-03T07:18:35;2.80;;;2.50;;
1507;SDS011;745;48.586;10.032;2023-02-03T07:23:06;2.30;;;2.10;;
1507;SDS011;745;48.586;10.032;2023-02-03T07:27:37;3.50;;;2.00;;
1507;SDS011;745;48.586;10.032;2023-02-03T07:32:07;3.43;;;3.13;;
1507;SDS011;745;48.586;10.032;2023-02-03T07:36:38;3.37;;;2.80;;
1507;SDS011;745;48.586;10.032;2023-02-03T07:41:08;2.40;;;2.20;;
1507;SDS011;745;48.586;10.032;2023-02-03T07:45:38;2.00;;;1.90;;
1507;SDS011;745;48.586;10.032;2023-02-03T07:50:09;2.80;;;2.13;;
1507;SDS011;745;48.586;10.032;2023-02-03T07:54:40;2.60;;;2.40;;
1507;SDS011;745;48.586;10.032;2023-02-03T07:59:12;2.73;;;2.10;;
1507;SDS011;745;48.586;10.032;2023-02-03T08:03:42;2.53;;;2.10;;
1507;SDS011;745;48.586;10.032;2023-02-03T08:08:13;2.00;;;1.90;;
1507;SDS011;745;48.586;10.032;2023-02-03T08:12:43;3.00;;;1.90;;
1507;SDS011;745;48.586;10.032;2023-02-03T08:17:15;2.90;;;2.37;;
1507;SDS011;745;48.586;10.032;2023-02-03T08:21:46;2.83;;;2.10;;
1507;SDS011;745;48.586;10.032;2023-02-03T08:26:16;2.60;;;2.40;;
1507;SDS011;745;48.586;10.032;2023-02-03T08:30:46;5.43;;;2.67;;
1507;SDS011;745;48.586;10.032;2023-02-03T08:35:17;2.23;;;2.03;;
1507;SDS011;745;48.586;10.032;2023-02-03T08:39:47;4.37;;;1.73;;
1507;SDS011;745;48.586;10.032;2023-02-03T08:44:18;1.70;;;1.60;;
1507;SDS011;745;48.586;10.032;2023-02-03T08:48:48;1.77;;;1.67;;
1507;SDS011;745;48.586;10.032;2023-02-03T08:53:19;2.20;;;2.00;;
1507;SDS011;745;48.586;10.032;2023-02-03T08:57:49;1.53;;;1.43;;
1507;SDS011;745;48.586;10.032;2023-02-03T09:02:19;2.50;;;1.50;;
1507;SDS011;745;48.586;10.032;2023-02-03T09:06:50;2.70;;;1.50;;
1507;SDS011;745;48.586;10.032;2023-02-03T09:11:23;2.03;;;1.33;;
1507;SDS011;745;48.586;10.032;2023-02-03T09:15:53;1.53;;;1.43;;
1507;SDS011;745;48.586;10.032;2023-02-03T09:20:23;1.57;;;1.47;;
1507;SDS011;745;48.586;10.032;2023-02-03T09:24:55;2.30;;;1.50;;
1507;SDS011;745;48.586;10.032;2023-02-03T09:29:25;1.47;;;1.37;;
1507;SDS011;745;48.586;10.032;2023-02-03T09:33:55;1.37;;;1.27;;
1507;SDS011;745;48.586;10.032;2023-02-03T09:38:28;1.90;;;1.80;;
1507;SDS011;745;48.586;10.032;2023-02-03T09:43:19;1.63;;;1.53;;
1507;SDS011;745;48.586;10.032;2023-02-03T09:48:18;1.60;;;1.50;;
1507;SDS011;745;48.586;10.032;2023-02-03T09:52:50;1.60;;;1.50;;
1507;SDS011;745;48.586;10.032;2023-02-03T09:57:22;1.70;;;1.60;;
1507;SDS011;745;48.586;10.032;2023-02-03T10:01:57;1.70;;;1.60;;
1507;SDS011;745;48.586;10.032;2023-02-03T10:06:36;1.80;;;1.50;;
1507;SDS011;745;48.586;10.032;2023-02-03T10:11:21;1.97;;;1.83;;
1507;SDS011;745;48.586;10.032;2023-02-03T10:20:44;1.40;;;1.30;;
1507;SDS011;745;48.586;10.032;2023-02-03T10:25:26;1.67;;;1.53;;
1507;SDS011;745;48.586;10.032;2023-02-03T10:30:04;1.73;;;1.63;;
1507;SDS011;745;48.586;10.032;2023-02-03T10:34:40;1.43;;;1.33;;
1507;SDS011;745;48.586;10.032;2023-02-03T10:43:52;1.53;;;1.40;;
1507;SDS011;745;48.586;10.032;2023-02-03T10:48:22;3.30;;;1.40;;
1507;SDS011;745;48.586;10.032;2023-02-03T10:52:54;1.50;;;1.40;;
1507;SDS011;745;48.586;10.032;2023-02-03T10:57:46;1.43;;;1.33;;
1507;SDS011;745;48.586;10.032;2023-02-03T11:02:27;1.67;;;1.10;;
1507;SDS011;745;48.586;10.032;2023-02-03T11:07:03;1.40;;;1.20;;
1507;SDS011;745;48.586;10.032;2023-02-03T11:11:35;1.70;;;1.00;;
1507;SDS011;745;48.586;10.032;2023-02-03T11:16:14;1.30;;;1.17;;
1507;SDS011;745;48.586;10.032;2023-02-03T11:20:46;1.80;;;1.50;;
1507;SDS011;745;48.586;10.032;2023-02-03T11:25:17;2.30;;;2.10;;
1507;SDS011;745;48.586;10.032;2023-02-03T11:29:50;1.30;;;1.20;;
1507;SDS011;745;48.586;10.032;2023-02-03T11:34:36;1.70;;;1.60;;
1507;SDS011;745;48.586;10.032;2023-02-03T11:39:09;1.20;;;1.10;;
1507;SDS011;745;48.586;10.032;2023-02-03T11:43:56;1.37;;;1.23;;
1507;SDS011;745;48.586;10.032;2023-02-03T11:48:37;2.13;;;1.40;;
1507;SDS011;745;48.586;10.032;2023-02-03T12:22:15;1.33;;;1.23;;
1507;SDS011;745;48.586;10.032;2023-02-03T12:31:30;1.47;;;1.37;;
1507;SDS011;745;48.586;10.032;2023-02-03T12:36:20;1.40;;;1.30;;
1507;SDS011;745;48.586;10.032;2023-02-03T12:40:59;1.30;;;1.20;;
1507;SDS011;745;48.586;10.032;2023-02-03T12:45:31;1.20;;;1.10;;
1507;SDS011;745;48.586;10.032;2023-02-03T12:50:17;1.30;;;1.20;;
1507;SDS011;745;48.586;10.032;2023-02-03T12:59:27;1.27;;;1.20;;
1507;SDS011;745;48.586;10.032;2023-02-03T13:04:04;2.27;;;1.30;;
1507;SDS011;745;48.586;10.032;2023-02-03T13:08:38;3.27;;;1.33;;
1507;SDS011;745;48.586;10.032;2023-02-03T13:13:12;1.47;;;1.37;;
1507;SDS011;745;48.586;10.032;2023-02-03T13:17:47;1.23;;;1.13;;
1507;SDS011;745;48.586;10.032;2023-02-03T13:22:22;1.30;;;1.20;;
1507;SDS011;745;48.586;10.032;2023-02-03T13:31:48;1.10;;;1.10;;
1507;SDS011;745;48.586;10.032;2023-02-03T13:41:46;1.30;;;1.20;;
1507;SDS011;745;48.586;10.032;2023-02-03T13:46:31;2.50;;;2.30;;
1507;SDS011;745;48.586;10.032;2023-02-03T13:51:13;1.57;;;1.47;;
1507;SDS011;745;48.586;10.032;2023-02-03T13:55:53;1.50;;;1.40;;
1507;SDS011;745;48.586;10.032;2023-02-03T14:14:43;2.13;;;1.60;;
1507;SDS011;745;48.586;10.032;2023-02-03T14:23:58;3.37;;;2.07;;
1507;SDS011;745;48.586;10.032;2023-02-03T14:28:39;2.50;;;2.30;;
1507;SDS011;745;48.586;10.032;2023-02-03T14:33:11;2.33;;;2.13;;
1507;SDS011;745;48.586;10.032;2023-02-03T14:37:50;1.67;;;1.57;;
1507;SDS011;745;48.586;10.032;2023-02-03T15:06:35;1.60;;;1.50;;
1507;SDS011;745;48.586;10.032;2023-02-03T15:11:23;1.97;;;1.87;;
1507;SDS011;745;48.586;10.032;2023-02-03T15:15:59;1.60;;;1.50;;
1507;SDS011;745;48.586;10.032;2023-02-03T15:20:36;5.73;;;1.90;;
1507;SDS011;745;48.586;10.032;2023-02-03T15:25:15;2.37;;;2.00;;
1507;SDS011;745;48.586;10.032;2023-02-03T15:29:47;1.40;;;1.30;;
1507;SDS011;745;48.586;10.032;2023-02-03T15:34:22;1.93;;;1.83;;
1507;SDS011;745;48.586;10.032;2023-02-03T15:39:03;5.70;;;3.00;;
1507;SDS011;745;48.586;10.032;2023-02-03T15:43:40;4.03;;;2.10;;
1507;SDS011;745;48.586;10.032;2023-02-03T15:52:42;2.13;;;1.83;;
1507;SDS011;745;48.586;10.032;2023-02-03T15:57:15;2.07;;;1.87;;
1507;SDS011;745;48.586;10.032;2023-02-03T16:01:50;3.57;;;3.27;;
1507;SDS011;745;48.586;10.032;2023-02-03T16:06:34;5.30;;;3.77;;
1507;SDS011;745;48.586;10.032;2023-02-03T16:15:59;3.13;;;2.20;;
1507;SDS011;745;48.586;10.032;2023-02-03T16:20:31;6.40;;;3.93;;
1507;SDS011;745;48.586;10.032;2023-02-03T16:25:12;9.40;;;5.50;;
1507;SDS011;745;48.586;10.032;2023-02-03T16:29:48;3.70;;;3.13;;
1507;SDS011;745;48.586;10.032;2023-02-03T16:34:37;9.40;;;5.53;;
1507;SDS011;745;48.586;10.032;2023-02-03T16:39:26;3.53;;;2.93;;
1507;SDS011;745;48.586;10.032;2023-02-03T16:44:16;6.27;;;4.07;;
1507;SDS011;745;48.586;10.032;2023-02-03T16:49:06;2.07;;;1.93;;
1507;SDS011;745;48.586;10.032;2023-02-03T16:53:55;1.70;;;1.60;;
1507;SDS011;745;48.586;10.032;2023-02-03T16:58:25;1.20;;;1.20;;
1507;SDS011;745;48.586;10.032;2023-02-03T17:02:56;1.70;;;1.60;;
1507;SDS011;745;48.586;10.032;2023-02-03T17:07:26;2.47;;;2.30;;
1507;SDS011;745;48.586;10.032;2023-02-03T17:11:56;2.73;;;2.53;;
1507;SDS011;745;48.586;10.032;2023-02-03T17:16:27;1.80;;;1.70;;
1507;SDS011;745;48.586;10.032;2023-02-03T17:21:02;1.97;;;1.87;;
1507;SDS011;745;48.586;10.032;2023-02-03T17:25:33;2.30;;;2.10;;
1507;SDS011;745;48.586;10.032;2023-02-03T17:30:07;1.90;;;1.80;;
1507;SDS011;745;48.586;10.032;2023-02-03T17:34:38;2.63;;;2.43;;
1507;SDS011;745;48.586;10.032;2023-02-03T17:39:09;2.23;;;2.03;;
1507;SDS011;745;48.586;10.032;2023-02-03T17:43:39;2.93;;;2.47;;
1507;SDS011;745;48.586;10.032;2023-02-03T17:48:10;2.03;;;1.93;;
1507;SDS011;745;48.586;10.032;2023-02-03T17:52:41;4.80;;;4.40;;
1507;SDS011;745;48.586;10.032;2023-02-03T17:57:11;1.80;;;1.70;;
1507;SDS011;745;48.586;10.032;2023-02-03T18:01:41;1.60;;;1.50;;
1507;SDS011;745;48.586;10.032;2023-02-03T18:06:12;1.70;;;1.60;;
1507;SDS011;745;48.586;10.032;2023-02-03T18:10:43;1.60;;;1.50;;
1507;SDS011;745;48.586;10.032;2023-02-03T18:15:13;2.00;;;1.90;;
1507;SDS011;745;48.586;10.032;2023-02-03T18:19:44;1.67;;;1.57;;
1507;SDS011;745;48.586;10.032;2023-02-03T18:24:14;2.00;;;1.90;;
1507;SDS011;745;48.586;10.032;2023-02-03T18:28:49;1.60;;;1.50;;
1507;SDS011;745;48.586;10.032;2023-02-03T18:33:22;1.70;;;1.60;;
1507;SDS011;745;48.586;10.032;2023-02-03T18:37:52;1.50;;;1.40;;
1507;SDS011;745;48.586;10.032;2023-02-03T18:42:23;1.80;;;1.70;;
1507;SDS011;745;48.586;10.032;2023-02-03T18:46:53;2.00;;;1.90;;
1507;SDS011;745;48.586;10.032;2023-02-03T18:51:24;1.67;;;1.57;;
1507;SDS011;745;48.586;10.032;2023-02-03T18:55:55;1.53;;;1.43;;
1507;SDS011;745;48.586;10.032;2023-02-03T19:00:25;2.93;;;1.60;;
1507;SDS011;745;48.586;10.032;2023-02-03T19:04:56;2.00;;;1.90;;
1507;SDS011;745;48.586;10.032;2023-02-03T19:09:26;2.17;;;1.80;;
1507;SDS011;745;48.586;10.032;2023-02-03T19:13:56;1.77;;;1.67;;
1507;SDS011;745;48.586;10.032;2023-02-03T19:18:27;2.13;;;2.03;;
1507;SDS011;745;48.586;10.032;2023-02-03T19:22:59;1.70;;;1.60;;
1507;SDS011;745;48.586;10.032;2023-02-03T19:27:31;1.93;;;1.83;;
1507;SDS011;745;48.586;10.032;2023-02-03T19:32:01;2.43;;;2.23;;
1507;SDS011;745;48.586;10.032;2023-02-03T19:36:32;2.50;;;1.80;;
1507;SDS011;745;48.586;10.032;2023-02-03T19:41:02;2.17;;;1.97;;
1507;SDS011;745;48.586;10.032;2023-02-03T19:45:32;1.80;;;1.70;;
1507;SDS011;745;48.586;10.032;2023-02-03T19:50:04;2.00;;;1.90;;
1507;SDS011;745;48.586;10.032;2023-02-03T19:54:35;1.90;;;1.80;;
1507;SDS011;745;48.586;10.032;2023-02-03T19:59:06;1.93;;;1.83;;
1507;SDS011;745;48.586;10.032;2023-02-03T20:03:36;1.80;;;1.70;;
1507;SDS011;745;48.586;10.032;2023-02-03T20:08:07;1.77;;;1.67;;
1507;SDS011;745;48.586;10.032;2023-02-03T20:12:41;1.70;;;1.60;;
1507;SDS011;745;48.586;10.032;2023-02-03T20:17:12;2.43;;;2.23;;
1507;SDS011;745;48.586;10.032;2023-02-03T20:21:42;1.70;;;1.60;;
1507;SDS011;745;48.586;10.032;2023-02-03T20:26:12;2.60;;;2.30;;
1507;SDS011;745;48.586;10.032;2023-02-03T20:30:43;1.70;;;1.60;;
1507;SDS011;745;48.586;10.032;2023-02-03T20:35:13;2.10;;;1.50;;
1507;SDS011;745;48.586;10.032;2023-02-03T20:39:43;1.80;;;1.70;;
1507;SDS011;745;48.586;10.032;2023-02-03T20:44:14;1.40;;;1.37;;
1507;SDS011;745;48.586;10.032;2023-02-03T20:48:44;1.90;;;1.70;;
1507;SDS011;745;48.586;10.032;2023-02-03T20:53:16;1.53;;;1.43;;
1507;SDS011;745;48.586;10.032;2023-02-03T20:57:46;1.80;;;1.60;;
1507;SDS011;745;48.586;10.032;2023-02-03T21:02:21;1.43;;;1.33;;
1507;SDS011;745;48.586;10.032;2023-02-03T21:07:00;1.83;;;1.73;;
1507;SDS011;745;48.586;10.032;2023-02-03T21:11:35;1.70;;;1.47;;
1507;SDS011;745;48.586;10.032;2023-02-03T21:16:16;1.80;;;1.70;;
1507;SDS011;745;48.586;10.032;2023-02-03T21:20:55;2.30;;;2.10;;
1507;SDS011;745;48.586;10.032;2023-02-03T21:25:27;3.00;;;2.80;;
1507;SDS011;745;48.586;10.032;2023-02-03T21:30:02;2.77;;;2.57;;
1507;SDS011;745;48.586;10.032;2023-02-03T21:35:20;2.93;;;2.73;;
1507;SDS011;745;48.586;10.032;2023-02-03T21:39:53;2.97;;;2.77;;
1507;SDS011;745;48.586;10.032;2023-02-03T21:44:28;2.67;;;2.47;;
1507;SDS011;745;48.586;10.032;2023-02-03T21:49:08;3.77;;;3.23;;
1507;SDS011;745;48.586;10.032;2023-02-03T21:53:40;3.00;;;2.70;;
1507;SDS011;745;48.586;10.032;2023-02-03T21:58:28;3.80;;;3.50;;
1507;SDS011;745;48.586;10.032;2023-02-03T22:03:02;3.50;;;3.00;;
1507;SDS011;745;48.586;10.032;2023-02-03T22:07:37;4.03;;;3.73;;
1507;SDS011;745;48.586;10.032;2023-02-03T22:12:07;3.87;;;3.53;;
1507;SDS011;745;48.586;10.032;2023-02-03T22:16:37;4.10;;;3.70;;
1507;SDS011;745;48.586;10.032;2023-02-03T22:21:08;6.33;;;4.73;;
1507;SDS011;745;48.586;10.032;2023-02-03T22:25:38;3.43;;;3.20;;
1507;SDS011;745;48.586;10.032;2023-02-03T22:30:12;3.70;;;3.40;;
1507;SDS011;745;48.586;10.032;2023-02-03T22:34:42;4.70;;;4.30;;
1507;SDS011;745;48.586;10.032;2023-02-03T22:39:13;4.70;;;4.30;;
1507;SDS011;745;48.586;10.032;2023-02-03T22:43:43;5.57;;;4.63;;
1507;SDS011;745;48.586;10.032;2023-02-03T22:48:13;4.63;;;4.23;;
1507;SDS011;745;48.586;10.032;2023-02-03T22:52:44;7.10;;;5.27;;
1507;SDS011;745;48.586;10.032;2023-02-03T22:57:14;5.53;;;5.03;;
1507;SDS011;745;48.586;10.032;2023-02-03T23:01:44;5.77;;;5.27;;
1507;SDS011;745;48.586;10.032;2023-02-03T23:06:15;5.00;;;4.50;;
1507;SDS011;745;48.586;10.032;2023-02-03T23:10:45;6.27;;;4.70;;
1507;SDS011;745;48.586;10.032;2023-02-03T23:15:17;5.13;;;4.67;;
1507;SDS011;745;48.586;10.032;2023-02-03T23:19:47;4.80;;;4.40;;
1507;SDS011;745;48.586;10.032;2023-02-03T23:24:18;8.43;;;4.97;;
1507;SDS011;745;48.586;10.032;2023-02-03T23:28:48;5.00;;;4.57;;
1507;SDS011;745;48.586;10.032;2023-02-03T23:33:18;4.80;;;4.33;;
1507;SDS011;745;48.586;10.032;2023-02-03T23:37:49;5.63;;;5.13;;
1507;SDS011;745;48.586;10.032;2023-02-03T23:42:19;5.00;;;4.47;;
1507;SDS011;745;48.586;10.032;2023-02-03T23:46:49;6.30;;;5.53;;
1507;SDS011;745;48.586;10.032;2023-02-03T23:51:20;7.57;;;6.40;;
1507;SDS011;745;48.586;10.032;2023-02-03T23:55:50;11.57;;;8.83;;
